createdAt,value
2019-04-06T00:00:45.935Z,53.43
2019-04-06T00:01:53.394Z,52.43
2019-04-06T00:02:57.708Z,54.30
2019-04-06T00:04:02.065Z,55.47
2019-04-06T00:05:07.187Z,55.80
2019-04-06T00:06:11.834Z,55.83
2019-04-06T00:07:16.338Z,54.37
2019-04-06T00:08:20.736Z,59.00
2019-04-06T00:09:25.117Z,57.07
2019-04-06T00:10:29.595Z,57.53
2019-04-06T00:11:33.921Z,61.10
2019-04-06T00:12:38.264Z,59.03
2019-04-06T00:13:42.774Z,59.40
2019-04-06T00:14:47.122Z,60.33
2019-04-06T00:15:51.539Z,62.30
2019-04-06T00:16:55.871Z,59.73
2019-04-06T00:18:00.293Z,62.20
2019-04-06T00:19:04.857Z,66.30
2019-04-06T00:20:09.357Z,63.07
2019-04-06T00:21:13.753Z,62.10
2019-04-06T00:22:18.082Z,59.90
2019-04-06T00:23:22.377Z,57.83
2019-04-06T00:24:26.730Z,61.07
2019-04-06T00:25:31.140Z,65.67
2019-04-06T00:26:35.518Z,60.63
2019-04-06T00:27:40.088Z,63.20
2019-04-06T00:28:44.473Z,64.03
2019-04-06T00:29:48.784Z,62.10
2019-04-06T00:31:09.205Z,64.40
2019-04-06T00:32:35.757Z,63.23
2019-04-06T00:33:40.258Z,68.07
2019-04-06T00:34:44.587Z,68.93
2019-04-06T00:35:48.966Z,63.73
2019-04-06T00:36:53.322Z,62.03
2019-04-06T00:37:57.655Z,62.80
2019-04-06T00:39:02.103Z,66.47
2019-04-06T00:40:06.866Z,61.07
2019-04-06T00:41:11.386Z,66.67
2019-04-06T00:42:15.994Z,65.63
2019-04-06T00:43:20.344Z,71.10
2019-04-06T00:44:24.739Z,67.50
2019-04-06T00:45:29.091Z,67.70
2019-04-06T00:46:33.453Z,69.40
2019-04-06T00:47:37.863Z,70.97
2019-04-06T00:48:42.239Z,65.27
2019-04-06T00:49:46.686Z,68.77
2019-04-06T00:50:51.029Z,67.50
2019-04-06T00:51:55.539Z,73.30
2019-04-06T00:52:59.917Z,72.70
2019-04-06T00:54:04.348Z,75.73
2019-04-06T00:55:08.839Z,76.80
2019-04-06T00:56:13.395Z,74.90
2019-04-06T00:57:17.792Z,74.17
2019-04-06T00:58:22.126Z,69.87
2019-04-06T00:59:26.503Z,74.57
2019-04-06T01:00:30.887Z,74.93
2019-04-06T01:01:35.638Z,76.33
2019-04-06T01:02:40.109Z,78.53
2019-04-06T01:03:44.612Z,79.33
2019-04-06T01:04:48.932Z,76.77
2019-04-06T01:05:53.322Z,79.33
2019-04-06T01:06:57.683Z,78.10
2019-04-06T01:08:02.122Z,79.53
2019-04-06T01:09:09.539Z,81.30
2019-04-06T01:10:14.261Z,73.90
2019-04-06T01:11:18.624Z,78.27
2019-04-06T01:12:23.044Z,76.90
2019-04-06T01:13:27.755Z,80.70
2019-04-06T01:14:32.114Z,75.97
2019-04-06T01:15:36.528Z,74.60
2019-04-06T01:16:40.831Z,78.73
2019-04-06T01:17:45.183Z,76.53
2019-04-06T01:18:49.620Z,75.40
2019-04-06T01:19:54.092Z,79.30
2019-04-06T01:20:58.486Z,75.73
2019-04-06T01:22:02.879Z,77.20
2019-04-06T01:23:07.306Z,80.53
2019-04-06T01:24:11.692Z,82.33
2019-04-06T01:25:16.047Z,82.30
2019-04-06T01:26:20.476Z,83.63
2019-04-06T01:27:24.789Z,82.57
2019-04-06T01:28:29.178Z,85.10
2019-04-06T01:29:33.528Z,87.27
2019-04-06T01:30:38.052Z,87.57
2019-04-06T01:31:42.540Z,88.57
2019-04-06T01:32:47.085Z,88.03
2019-04-06T01:33:51.427Z,90.20
2019-04-06T01:34:55.759Z,86.90
2019-04-06T01:36:00.133Z,82.50
2019-04-06T01:37:04.575Z,88.23
2019-04-06T01:38:08.925Z,89.13
2019-04-06T01:39:13.295Z,89.93
2019-04-06T01:40:17.778Z,83.47
2019-04-06T01:41:31.414Z,85.60
2019-04-06T01:42:35.875Z,83.93
2019-04-06T01:43:40.266Z,82.73
2019-04-06T01:44:44.665Z,81.90
2019-04-06T01:45:49.105Z,86.20
2019-04-06T01:46:53.445Z,85.50
2019-04-06T01:47:57.833Z,84.50
2019-04-06T01:49:02.247Z,86.77
2019-04-06T01:50:07.071Z,84.00
2019-04-06T01:51:11.419Z,80.83
2019-04-06T01:52:15.766Z,86.73
2019-04-06T01:53:20.119Z,85.40
2019-04-06T01:54:24.453Z,88.17
2019-04-06T01:55:28.817Z,87.77
2019-04-06T01:56:33.283Z,81.07
2019-04-06T01:57:37.612Z,88.97
2019-04-06T01:58:41.996Z,85.00
2019-04-06T01:59:46.312Z,88.47
2019-04-06T02:01:16.267Z,90.10
2019-04-06T02:02:25.181Z,92.67
2019-04-06T02:03:29.512Z,88.87
2019-04-06T02:04:33.844Z,94.73
2019-04-06T02:05:38.262Z,93.23
2019-04-06T02:06:42.645Z,89.50
2019-04-06T02:07:47.143Z,93.67
2019-04-06T02:08:51.531Z,96.37
2019-04-06T02:09:55.847Z,101.67
2019-04-06T02:11:00.199Z,101.43
2019-04-06T02:12:04.620Z,94.07
2019-04-06T02:13:08.937Z,96.83
2019-04-06T02:14:13.260Z,94.70
2019-04-06T02:15:17.984Z,96.50
2019-04-06T02:16:22.393Z,92.97
2019-04-06T02:17:26.850Z,92.17
2019-04-06T02:18:31.205Z,97.10
2019-04-06T02:19:35.713Z,99.37
2019-04-06T02:20:40.241Z,96.60
2019-04-06T02:21:44.878Z,98.63
2019-04-06T02:22:49.177Z,98.80
2019-04-06T02:23:53.518Z,94.43
2019-04-06T02:24:57.957Z,98.37
2019-04-06T02:26:02.362Z,94.93
2019-04-06T02:27:06.825Z,94.77
2019-04-06T02:28:11.188Z,94.10
2019-04-06T02:29:15.600Z,91.77
2019-04-06T02:30:27.832Z,93.63
2019-04-06T02:31:55.302Z,90.27
2019-04-06T02:33:08.415Z,92.03
2019-04-06T02:34:30.324Z,89.20
2019-04-06T02:35:44.187Z,91.10
2019-04-06T02:37:06.679Z,96.07
2019-04-06T02:38:33.284Z,97.33
2019-04-06T02:39:55.417Z,94.03
2019-04-06T02:41:07.945Z,92.83
2019-04-06T02:42:16.701Z,89.43
2019-04-06T02:43:24.032Z,94.27
2019-04-06T02:44:28.395Z,96.70
2019-04-06T02:45:32.752Z,95.87
2019-04-06T02:46:37.087Z,99.37
2019-04-06T02:47:41.451Z,94.30
2019-04-06T02:48:45.874Z,90.77
2019-04-06T02:49:50.346Z,92.70
2019-04-06T02:50:54.736Z,93.83
2019-04-06T02:51:59.154Z,92.20
2019-04-06T02:53:03.488Z,92.47
2019-04-06T02:54:07.834Z,94.60
2019-04-06T02:55:12.332Z,90.20
2019-04-06T02:56:16.728Z,90.70
2019-04-06T02:57:21.123Z,91.00
2019-04-06T02:58:25.588Z,89.17
2019-04-06T02:59:30.167Z,90.53
2019-04-06T03:00:34.574Z,91.87
2019-04-06T03:01:39.035Z,89.90
2019-04-06T03:02:43.592Z,88.70
2019-04-06T03:03:48.101Z,90.77
2019-04-06T03:04:52.512Z,90.00
2019-04-06T03:05:57.173Z,90.37
2019-04-06T03:07:01.649Z,88.23
2019-04-06T03:08:06.122Z,87.73
2019-04-06T03:09:11.809Z,86.23
2019-04-06T03:10:16.658Z,87.70
2019-04-06T03:11:21.009Z,88.50
2019-04-06T03:12:25.484Z,88.40
2019-04-06T03:13:29.969Z,84.47
2019-04-06T03:14:34.459Z,87.57
2019-04-06T03:15:38.844Z,85.03
2019-04-06T03:16:43.307Z,83.27
2019-04-06T03:17:47.697Z,84.03
2019-04-06T03:18:52.171Z,89.20
2019-04-06T03:19:56.967Z,84.13
2019-04-06T03:21:01.975Z,88.07
2019-04-06T03:22:06.480Z,90.47
2019-04-06T03:23:10.855Z,87.00
2019-04-06T03:24:15.209Z,86.37
2019-04-06T03:25:19.618Z,88.20
2019-04-06T03:26:24.032Z,90.10
2019-04-06T03:27:28.419Z,85.33
2019-04-06T03:28:33.088Z,84.23
2019-04-06T03:29:37.605Z,86.80
2019-04-06T03:30:42.303Z,88.63
2019-04-06T03:31:46.830Z,89.77
2019-04-06T03:32:51.564Z,90.43
2019-04-06T03:33:56.330Z,90.20
2019-04-06T03:35:01.099Z,85.60
2019-04-06T03:36:05.736Z,85.43
2019-04-06T03:37:10.143Z,87.40
2019-04-06T03:38:14.854Z,84.13
2019-04-06T03:39:19.451Z,80.93
2019-04-06T03:40:23.869Z,81.67
2019-04-06T03:41:28.328Z,82.03
2019-04-06T03:42:32.776Z,81.50
2019-04-06T03:43:37.179Z,77.43
2019-04-06T03:44:41.558Z,86.10
2019-04-06T03:45:46.560Z,88.43
2019-04-06T03:46:51.235Z,85.63
2019-04-06T03:47:55.931Z,85.07
2019-04-06T03:49:00.572Z,82.03
2019-04-06T03:50:05.899Z,84.83
2019-04-06T03:51:10.419Z,81.30
2019-04-06T03:52:14.779Z,82.63
2019-04-06T03:53:19.183Z,84.47
2019-04-06T03:54:23.600Z,85.57
2019-04-06T03:55:28.071Z,87.50
2019-04-06T03:56:32.467Z,87.57
2019-04-06T03:57:36.805Z,86.40
2019-04-06T03:58:41.234Z,82.07
2019-04-06T03:59:45.669Z,86.30
2019-04-06T04:00:50.511Z,88.13
2019-04-06T04:01:55.002Z,88.70
2019-04-06T04:02:59.649Z,83.73
2019-04-06T04:04:04.221Z,87.57
2019-04-06T04:05:08.654Z,83.93
2019-04-06T04:06:13.057Z,86.57
2019-04-06T04:07:17.689Z,87.73
2019-04-06T04:08:22.139Z,90.50
2019-04-06T04:09:26.842Z,93.20
2019-04-06T04:10:37.847Z,92.07
2019-04-06T04:11:42.264Z,85.13
2019-04-06T04:12:46.827Z,90.60
2019-04-06T04:13:51.295Z,90.60
2019-04-06T04:14:55.643Z,86.87
2019-04-06T04:16:00.164Z,88.90
2019-04-06T04:17:04.648Z,91.53
2019-04-06T04:18:09.086Z,88.67
2019-04-06T04:19:13.510Z,83.93
2019-04-06T04:20:17.946Z,91.73
2019-04-06T04:21:22.412Z,90.37
2019-04-06T04:22:26.982Z,88.87
2019-04-06T04:23:31.336Z,90.20
2019-04-06T04:24:35.800Z,92.63
2019-04-06T04:25:40.342Z,88.10
2019-04-06T04:26:44.913Z,89.10
2019-04-06T04:27:49.649Z,90.13
2019-04-06T04:28:54.389Z,89.37
2019-04-06T04:29:59.125Z,92.73
2019-04-06T04:31:03.642Z,94.10
2019-04-06T04:32:08.139Z,94.50
2019-04-06T04:33:12.502Z,94.33
2019-04-06T04:34:17.088Z,95.13
2019-04-06T04:35:21.591Z,95.57
2019-04-06T04:36:26.211Z,91.83
2019-04-06T04:37:31.685Z,98.67
2019-04-06T04:38:36.138Z,98.10
2019-04-06T04:39:40.521Z,98.00
2019-04-06T04:40:45.111Z,96.67
2019-04-06T04:41:49.688Z,95.03
2019-04-06T04:42:54.047Z,93.27
2019-04-06T04:43:58.542Z,92.33
2019-04-06T04:45:02.941Z,96.57
2019-04-06T04:46:07.318Z,97.10
2019-04-06T04:47:11.720Z,97.20
2019-04-06T04:48:16.220Z,95.07
2019-04-06T04:49:20.744Z,103.07
2019-04-06T04:50:25.188Z,98.87
2019-04-06T04:51:29.648Z,107.40
2019-04-06T04:52:34.016Z,104.33
2019-04-06T04:53:38.608Z,104.37
2019-04-06T04:54:43.029Z,105.27
2019-04-06T04:55:47.526Z,100.53
2019-04-06T04:56:52.132Z,106.57
2019-04-06T04:57:56.795Z,104.23
2019-04-06T04:59:01.341Z,98.90
2019-04-06T05:00:06.475Z,102.70
2019-04-06T05:01:11.226Z,103.33
2019-04-06T05:02:15.572Z,97.27
2019-04-06T05:03:20.146Z,101.97
2019-04-06T05:04:24.698Z,101.30
2019-04-06T05:05:29.163Z,100.90
2019-04-06T05:06:33.587Z,102.63
2019-04-06T05:07:38.106Z,100.97
2019-04-06T05:08:42.563Z,102.30
2019-04-06T05:09:46.999Z,98.70
2019-04-06T05:10:51.537Z,100.97
2019-04-06T05:11:56.027Z,98.57
2019-04-06T05:13:00.563Z,98.93
2019-04-06T05:14:40.959Z,99.83
2019-04-06T05:16:22.912Z,93.93
2019-04-06T05:17:27.528Z,95.40
2019-04-06T05:18:31.899Z,105.03
2019-04-06T05:19:36.378Z,101.27
2019-04-06T05:20:40.793Z,96.90
2019-04-06T05:21:45.290Z,101.50
2019-04-06T05:22:49.887Z,100.80
2019-04-06T05:23:54.231Z,100.47
2019-04-06T05:24:58.826Z,93.70
2019-04-06T05:26:05.373Z,99.67
2019-04-06T05:27:09.860Z,99.00
2019-04-06T05:28:14.234Z,93.70
2019-04-06T05:29:18.628Z,90.70
2019-04-06T05:30:23.081Z,89.83
2019-04-06T05:31:27.456Z,92.00
2019-04-06T05:32:31.863Z,90.53
2019-04-06T05:33:36.967Z,88.77
2019-04-06T05:34:41.443Z,90.27
2019-04-06T05:35:46.050Z,88.07
2019-04-06T05:36:50.595Z,84.87
2019-04-06T05:37:55.107Z,88.83
2019-04-06T05:38:59.519Z,86.77
2019-04-06T05:40:04.313Z,88.90
2019-04-06T05:41:09.620Z,86.40
2019-04-06T05:42:14.131Z,88.63
2019-04-06T05:43:18.520Z,89.93
2019-04-06T05:44:22.884Z,88.93
2019-04-06T05:45:27.444Z,93.57
2019-04-06T05:46:31.982Z,92.47
2019-04-06T05:47:36.475Z,88.97
2019-04-06T05:48:40.865Z,88.43
2019-04-06T05:49:45.305Z,89.90
2019-04-06T05:50:49.656Z,87.77
2019-04-06T05:51:54.256Z,91.00
2019-04-06T05:52:58.591Z,84.03
2019-04-06T05:54:03.310Z,86.37
2019-04-06T05:55:07.779Z,89.53
2019-04-06T05:56:12.220Z,82.17
2019-04-06T05:57:16.573Z,85.73
2019-04-06T05:58:20.937Z,88.10
2019-04-06T05:59:25.486Z,89.33
2019-04-06T06:00:29.864Z,84.30
2019-04-06T06:01:34.204Z,84.63
2019-04-06T06:02:41.409Z,81.20
2019-04-06T06:03:44.655Z,84.07
2019-04-06T06:04:50.050Z,88.17
2019-04-06T06:05:54.435Z,79.27
2019-04-06T06:06:58.932Z,78.57
2019-04-06T06:08:03.518Z,79.80
2019-04-06T06:09:08.300Z,76.80
2019-04-06T06:10:12.907Z,76.27
2019-04-06T06:11:17.337Z,76.33
2019-04-06T06:12:21.765Z,73.47
2019-04-06T06:13:26.280Z,75.87
2019-04-06T06:14:30.715Z,70.40
2019-04-06T06:15:35.264Z,73.03
2019-04-06T06:16:39.688Z,71.00
2019-04-06T06:17:44.199Z,71.77
2019-04-06T06:18:48.847Z,68.77
2019-04-06T06:19:53.225Z,73.00
2019-04-06T06:20:57.576Z,72.90
2019-04-06T06:22:02.152Z,72.27
2019-04-06T06:23:06.675Z,70.80
2019-04-06T06:24:11.074Z,70.30
2019-04-06T06:25:15.718Z,70.00
2019-04-06T06:26:20.471Z,74.50
2019-04-06T06:27:25.034Z,73.43
2019-04-06T06:28:29.650Z,74.83
2019-04-06T06:29:34.040Z,72.40
2019-04-06T06:30:38.394Z,72.00
2019-04-06T06:31:42.769Z,70.43
2019-04-06T06:32:47.184Z,69.43
2019-04-06T06:33:51.715Z,72.40
2019-04-06T06:34:56.212Z,67.53
2019-04-06T06:36:00.637Z,69.30
2019-04-06T06:37:05.217Z,71.03
2019-04-06T06:38:09.551Z,70.27
2019-04-06T06:39:14.113Z,71.43
2019-04-06T06:40:18.914Z,74.17
2019-04-06T06:41:23.371Z,69.87
2019-04-06T06:42:27.826Z,70.10
2019-04-06T06:43:32.291Z,71.33
2019-04-06T06:44:36.736Z,69.17
2019-04-06T06:45:41.220Z,73.60
2019-04-06T06:46:45.739Z,75.53
2019-04-06T06:47:50.149Z,75.47
2019-04-06T06:48:54.715Z,74.87
2019-04-06T06:49:59.207Z,71.37
2019-04-06T06:51:03.717Z,73.73
2019-04-06T06:52:08.269Z,75.07
2019-04-06T06:53:12.673Z,70.43
2019-04-06T06:54:17.121Z,72.43
2019-04-06T06:55:21.624Z,75.93
2019-04-06T06:56:26.140Z,74.90
2019-04-06T06:57:30.706Z,72.67
2019-04-06T06:58:35.258Z,74.60
2019-04-06T06:59:39.615Z,73.93
2019-04-06T07:00:44.490Z,75.67
2019-04-06T07:01:48.847Z,75.80
2019-04-06T07:02:53.318Z,74.13
2019-04-06T07:03:57.756Z,74.70
2019-04-06T07:05:02.136Z,75.50
2019-04-06T07:06:06.576Z,75.43
2019-04-06T07:07:11.056Z,71.90
2019-04-06T07:08:15.520Z,73.27
2019-04-06T07:09:19.924Z,73.33
2019-04-06T07:10:24.291Z,74.53
2019-04-06T07:11:28.839Z,75.13
2019-04-06T07:12:33.234Z,71.87
2019-04-06T07:13:37.895Z,71.00
2019-04-06T07:14:42.564Z,68.27
2019-04-06T07:15:47.071Z,72.93
2019-04-06T07:16:51.539Z,73.43
2019-04-06T07:17:56.005Z,67.97
2019-04-06T07:19:00.566Z,68.20
2019-04-06T07:20:07.064Z,73.10
2019-04-06T07:21:11.555Z,68.77
2019-04-06T07:22:15.984Z,72.47
2019-04-06T07:23:20.484Z,73.77
2019-04-06T07:24:25.007Z,72.33
2019-04-06T07:25:29.413Z,70.87
2019-04-06T07:26:33.784Z,70.97
2019-04-06T07:27:38.200Z,72.77
2019-04-06T07:28:42.542Z,70.03
2019-04-06T07:29:46.946Z,70.27
2019-04-06T07:30:51.383Z,70.00
2019-04-06T07:31:55.791Z,71.23
2019-04-06T07:33:00.181Z,71.03
2019-04-06T07:34:04.713Z,71.37
2019-04-06T07:35:09.184Z,68.27
2019-04-06T07:36:13.803Z,71.03
2019-04-06T07:37:18.208Z,70.57
2019-04-06T07:38:22.567Z,66.20
2019-04-06T07:39:26.984Z,66.27
2019-04-06T07:40:31.407Z,64.80
2019-04-06T07:41:35.746Z,63.13
2019-04-06T07:42:40.157Z,69.00
2019-04-06T07:43:44.894Z,68.93
2019-04-06T07:44:49.389Z,70.63
2019-04-06T07:45:53.992Z,66.77
2019-04-06T07:46:58.522Z,70.37
2019-04-06T07:48:02.939Z,66.67
2019-04-06T07:49:09.766Z,69.60
2019-04-06T07:50:13.925Z,71.70
2019-04-06T07:51:18.376Z,66.13
2019-04-06T07:52:22.949Z,67.23
2019-04-06T07:53:27.484Z,64.90
2019-04-06T07:54:31.940Z,66.40
2019-04-06T07:55:37.033Z,67.03
2019-04-06T07:56:41.446Z,68.33
2019-04-06T07:57:45.831Z,64.83
2019-04-06T07:58:50.581Z,63.07
2019-04-06T07:59:55.004Z,61.33
2019-04-06T08:00:59.385Z,63.43
2019-04-06T08:02:04.088Z,65.23
2019-04-06T08:03:08.674Z,63.13
2019-04-06T08:04:13.161Z,65.30
2019-04-06T08:05:17.632Z,62.60
2019-04-06T08:06:21.996Z,60.73
2019-04-06T08:07:26.532Z,61.80
2019-04-06T08:08:30.934Z,60.87
2019-04-06T08:09:35.477Z,65.63
2019-04-06T08:10:40.290Z,64.77
2019-04-06T08:11:44.875Z,64.07
2019-04-06T08:12:49.334Z,60.63
2019-04-06T08:13:53.890Z,58.93
2019-04-06T08:14:58.357Z,62.00
2019-04-06T08:16:03.306Z,59.27
2019-04-06T08:17:07.865Z,61.40
2019-04-06T08:18:12.229Z,61.00
2019-04-06T08:19:16.759Z,62.53
2019-04-06T08:20:21.381Z,58.60
2019-04-06T08:21:25.853Z,57.73
2019-04-06T08:22:30.396Z,55.87
2019-04-06T08:23:34.758Z,57.70
2019-04-06T08:24:39.201Z,54.57
2019-04-06T08:25:43.855Z,58.20
2019-04-06T08:26:48.355Z,56.40
2019-04-06T08:27:52.842Z,57.50
2019-04-06T08:29:01.530Z,58.57
2019-04-06T08:30:03.520Z,60.43
2019-04-06T08:31:07.931Z,56.83
2019-04-06T08:32:12.257Z,54.30
2019-04-06T08:33:16.587Z,56.13
2019-04-06T08:34:21.033Z,55.53
2019-04-06T08:35:26.790Z,56.90
2019-04-06T08:36:31.410Z,57.00
2019-04-06T08:37:35.953Z,54.20
2019-04-06T08:38:40.475Z,57.33
2019-04-06T08:39:45.026Z,56.93
2019-04-06T08:40:49.695Z,57.33
2019-04-06T08:41:54.478Z,55.53
2019-04-06T08:43:08.394Z,57.23
2019-04-06T08:44:12.979Z,55.60
2019-04-06T08:45:17.487Z,56.43
2019-04-06T08:46:21.889Z,57.70
2019-04-06T08:47:26.621Z,55.03
2019-04-06T08:48:31.170Z,55.90
2019-04-06T08:49:35.640Z,56.63
2019-04-06T08:50:40.236Z,57.00
2019-04-06T08:51:44.626Z,55.00
2019-04-06T08:52:49.069Z,53.40
2019-04-06T08:53:53.415Z,55.83
2019-04-06T08:54:57.793Z,56.30
2019-04-06T08:56:02.268Z,56.60
2019-04-06T08:57:06.758Z,53.83
2019-04-06T08:58:11.382Z,55.60
2019-04-06T08:59:17.211Z,55.07
2019-04-06T09:00:21.780Z,53.40
2019-04-06T09:01:26.361Z,52.10
2019-04-06T09:02:30.759Z,51.40
2019-04-06T09:03:35.205Z,51.50
2019-04-06T09:04:39.784Z,53.73
2019-04-06T09:05:44.545Z,52.57
2019-04-06T09:06:49.072Z,51.40
2019-04-06T09:07:53.486Z,55.53
2019-04-06T09:08:57.953Z,56.60
2019-04-06T09:10:02.495Z,53.90
2019-04-06T09:11:06.906Z,51.00
2019-04-06T09:12:11.298Z,55.27
2019-04-06T09:13:15.644Z,50.93
2019-04-06T09:14:20.042Z,53.00
2019-04-06T09:15:24.414Z,53.00
2019-04-06T09:16:28.772Z,53.80
2019-04-06T09:17:33.143Z,54.60
2019-04-06T09:18:37.678Z,55.23
2019-04-06T09:19:42.097Z,50.07
2019-04-06T09:20:46.583Z,54.93
2019-04-06T09:21:50.995Z,54.27
2019-04-06T09:22:55.754Z,54.07
2019-04-06T09:24:00.155Z,51.33
2019-04-06T09:25:04.943Z,51.60
2019-04-06T09:26:09.431Z,50.63
2019-04-06T09:27:13.848Z,53.27
2019-04-06T09:28:18.261Z,52.67
2019-04-06T09:29:24.460Z,50.97
2019-04-06T09:30:29.034Z,53.03
2019-04-06T09:31:33.583Z,51.70
2019-04-06T09:32:37.971Z,51.23
2019-04-06T09:33:42.369Z,49.73
2019-04-06T09:34:46.753Z,52.03
2019-04-06T09:35:51.153Z,50.67
2019-04-06T09:36:55.754Z,46.93
2019-04-06T09:38:00.148Z,50.53
2019-04-06T09:39:06.525Z,49.33
2019-04-06T09:40:11.997Z,51.83
2019-04-06T09:41:16.409Z,52.43
2019-04-06T09:42:20.820Z,49.63
2019-04-06T09:43:25.409Z,52.43
2019-04-06T09:45:07.120Z,54.13
2019-04-06T09:46:18.719Z,52.30
2019-04-06T09:47:30.009Z,53.37
2019-04-06T09:48:44.046Z,50.20
2019-04-06T09:50:19.869Z,47.33
2019-04-06T09:51:34.798Z,49.33
2019-04-06T09:52:45.811Z,50.97
2019-04-06T09:54:18.373Z,49.07
2019-04-06T09:55:32.214Z,48.13
2019-04-06T09:56:49.464Z,49.33
2019-04-06T09:58:22.213Z,49.07
2019-04-06T09:59:38.021Z,48.23
2019-04-06T10:00:58.424Z,46.37
2019-04-06T10:02:18.454Z,48.87
2019-04-06T10:03:51.167Z,46.70
2019-04-06T10:05:33.028Z,48.00
2019-04-06T10:06:44.386Z,48.17
2019-04-06T10:08:07.613Z,48.90
2019-04-06T10:09:30.513Z,48.20
2019-04-06T10:10:57.051Z,47.27
2019-04-06T10:12:19.312Z,48.57
2019-04-06T10:13:42.988Z,48.57
2019-04-06T10:15:12.185Z,48.60
2019-04-06T10:16:35.969Z,46.50
2019-04-06T10:18:02.878Z,46.03
2019-04-06T10:19:35.442Z,44.00
2019-04-06T10:21:05.683Z,46.63
2019-04-06T10:22:17.241Z,47.00
2019-04-06T10:23:32.627Z,48.00
2019-04-06T10:24:49.806Z,50.60
2019-04-06T10:26:16.360Z,49.23
2019-04-06T10:27:40.101Z,46.63
2019-04-06T10:29:02.703Z,46.00
2019-04-06T10:30:26.043Z,48.63
2019-04-06T10:31:49.617Z,45.37
2019-04-06T10:32:59.993Z,45.17
2019-04-06T10:34:16.379Z,47.27
2019-04-06T10:35:51.904Z,47.00
2019-04-06T10:37:20.985Z,47.33
2019-04-06T10:38:45.499Z,47.77
2019-04-06T10:39:54.908Z,44.30
2019-04-06T10:41:24.128Z,49.47
2019-04-06T10:42:51.570Z,47.33
2019-04-06T10:44:16.549Z,45.63
2019-04-06T10:45:40.206Z,43.10
2019-04-06T10:46:50.852Z,47.03
2019-04-06T10:48:02.461Z,45.67
2019-04-06T10:49:25.996Z,43.87
2019-04-06T10:50:48.495Z,44.43
2019-04-06T10:52:19.664Z,43.27
2019-04-06T10:53:36.383Z,39.70
2019-04-06T10:55:01.685Z,41.73
2019-04-06T10:56:23.478Z,43.73
2019-04-06T10:57:59.198Z,43.97
2019-04-06T10:59:28.592Z,38.70
2019-04-06T11:00:54.126Z,40.93
2019-04-06T11:02:26.829Z,43.83
2019-04-06T11:04:05.712Z,43.93
2019-04-06T11:05:25.026Z,38.73
2019-04-06T11:06:42.180Z,42.57
2019-04-06T11:07:51.000Z,43.47
2019-04-06T11:09:08.017Z,41.30
2019-04-06T11:10:27.257Z,40.57
2019-04-06T11:11:49.700Z,41.13
2019-04-06T11:13:13.532Z,44.53
2019-04-06T11:14:45.788Z,45.17
2019-04-06T11:16:09.508Z,41.90
2019-04-06T11:17:26.252Z,43.10
2019-04-06T11:18:42.832Z,43.23
2019-04-06T11:19:54.252Z,41.23
2019-04-06T11:21:12.165Z,43.20
2019-04-06T11:22:33.627Z,41.90
2019-04-06T11:23:48.760Z,40.40
2019-04-06T11:25:04.935Z,40.13
2019-04-06T11:26:37.456Z,38.67
2019-04-06T11:27:51.887Z,36.37
2019-04-06T11:29:17.186Z,37.70
2019-04-06T11:30:39.521Z,33.02
2019-04-06T11:31:56.169Z,37.83
2019-04-06T11:33:10.610Z,34.50
2019-04-06T11:34:26.847Z,38.78
2019-04-06T11:35:43.924Z,32.65
2019-04-06T11:37:03.817Z,33.85
2019-04-06T11:38:17.912Z,33.28
2019-04-06T11:39:41.505Z,35.58
2019-04-06T11:40:59.183Z,33.23
2019-04-06T11:42:18.442Z,33.18
2019-04-06T11:43:34.220Z,35.30
2019-04-06T11:44:56.293Z,35.52
2019-04-06T11:46:16.432Z,31.85
2019-04-06T11:47:26.572Z,34.33
2019-04-06T11:48:48.643Z,37.38
2019-04-06T11:50:12.081Z,34.25
2019-04-06T11:51:42.272Z,28.73
2019-04-06T11:53:00.061Z,29.70
2019-04-06T11:54:22.945Z,33.53
2019-04-06T11:55:43.298Z,28.42
2019-04-06T11:56:56.021Z,28.67
2019-04-06T11:58:12.884Z,29.70
2019-04-06T11:59:39.438Z,27.62
2019-04-06T12:01:02.845Z,29.72
2019-04-06T12:02:35.245Z,30.68
2019-04-06T12:04:04.266Z,29.32
2019-04-06T12:05:27.194Z,28.10
2019-04-06T12:06:49.673Z,27.87
2019-04-06T12:08:12.043Z,27.65
2019-04-06T12:09:38.315Z,25.85
2019-04-06T12:10:58.383Z,25.35
2019-04-06T12:12:09.611Z,25.30
2019-04-06T12:13:28.170Z,26.33
2019-04-06T12:14:54.502Z,25.97
2019-04-06T12:16:16.943Z,23.25
2019-04-06T12:17:39.520Z,24.00
2019-04-06T12:18:58.301Z,22.30
2019-04-06T12:20:25.012Z,22.13
2019-04-06T12:21:48.608Z,21.85
2019-04-06T12:22:59.379Z,24.32
2019-04-06T12:24:22.708Z,23.83
2019-04-06T12:25:44.926Z,25.68
2019-04-06T12:27:08.008Z,25.08
2019-04-06T12:28:40.880Z,23.65
2019-04-06T12:30:01.184Z,18.80
2019-04-06T12:31:30.222Z,17.77
2019-04-06T12:32:51.237Z,18.50
2019-04-06T12:34:14.830Z,18.55
2019-04-06T12:35:41.983Z,16.62
2019-04-06T12:37:01.491Z,17.60
2019-04-06T12:38:19.773Z,18.02
2019-04-06T12:39:53.041Z,17.48
2019-04-06T12:41:09.786Z,16.60
2019-04-06T12:42:32.271Z,15.50
2019-04-06T12:44:02.256Z,15.20
2019-04-06T12:45:22.972Z,15.88
2019-04-06T12:46:37.742Z,15.28
2019-04-06T12:48:00.666Z,15.83
2019-04-06T12:49:29.479Z,15.63
2019-04-06T12:50:52.672Z,14.18
2019-04-06T12:52:14.205Z,15.43
2019-04-06T12:53:38.949Z,15.98
2019-04-06T12:54:59.616Z,14.60
2019-04-06T12:56:23.245Z,15.75
2019-04-06T12:57:41.225Z,16.23
2019-04-06T12:58:50.026Z,16.77
2019-04-06T13:00:05.180Z,15.32
2019-04-06T13:01:28.581Z,15.88
2019-04-06T13:02:50.570Z,14.58
2019-04-06T13:04:13.154Z,13.90
2019-04-06T13:05:36.573Z,12.15
2019-04-06T13:06:58.312Z,12.68
2019-04-06T13:08:20.497Z,13.68
2019-04-06T13:09:53.872Z,14.25
2019-04-06T13:11:05.038Z,13.62
2019-04-06T13:12:34.693Z,13.50
2019-04-06T13:14:01.104Z,13.13
2019-04-06T13:15:18.829Z,14.07
2019-04-06T13:16:29.715Z,14.40
2019-04-06T13:17:53.196Z,13.20
2019-04-06T13:19:17.475Z,13.20
2019-04-06T13:20:32.801Z,13.22
2019-04-06T13:22:02.565Z,13.30
2019-04-06T13:23:47.413Z,13.00
2019-04-06T13:25:08.596Z,13.40
2019-04-06T13:26:33.495Z,13.88
2019-04-06T13:28:06.404Z,13.05
2019-04-06T13:29:20.475Z,12.37
2019-04-06T13:30:46.801Z,13.65
2019-04-06T13:32:02.003Z,12.60
2019-04-06T13:33:27.843Z,13.43
2019-04-06T13:34:51.375Z,14.15
2019-04-06T13:36:09.579Z,13.18
2019-04-06T13:37:36.217Z,12.78
2019-04-06T13:38:53.735Z,13.58
2019-04-06T13:40:08.396Z,14.28
2019-04-06T13:41:34.897Z,13.93
2019-04-06T13:42:57.252Z,13.55
2019-04-06T13:44:36.416Z,13.30
2019-04-06T13:46:02.700Z,12.68
2019-04-06T13:47:35.370Z,13.25
2019-04-06T13:48:57.400Z,13.08
2019-04-06T13:50:23.493Z,13.50
2019-04-06T13:51:46.200Z,14.13
2019-04-06T13:53:06.866Z,14.35
2019-04-06T13:54:33.763Z,16.55
2019-04-06T13:55:44.804Z,13.15
2019-04-06T13:57:07.880Z,14.47
2019-04-06T13:58:17.664Z,13.18
2019-04-06T13:59:28.439Z,13.15
2019-04-06T14:01:13.482Z,13.83
2019-04-06T14:02:35.021Z,13.95
2019-04-06T14:03:57.829Z,13.45
2019-04-06T14:05:10.083Z,13.43
2019-04-06T14:06:32.546Z,14.10
2019-04-06T14:07:47.023Z,14.58
2019-04-06T14:09:00.687Z,14.38
2019-04-06T14:10:24.135Z,16.30
2019-04-06T14:11:54.204Z,13.95
2019-04-06T14:13:36.063Z,12.90
2019-04-06T14:14:59.420Z,13.35
2019-04-06T14:16:18.945Z,13.25
2019-04-06T14:17:53.956Z,16.35
2019-04-06T14:19:07.864Z,12.85
2019-04-06T14:20:44.055Z,12.80
2019-04-06T14:21:57.912Z,16.15
2019-04-06T14:23:20.152Z,14.70
2019-04-06T14:24:49.609Z,13.13
2019-04-06T14:26:20.037Z,12.75
2019-04-06T14:27:43.407Z,13.13
2019-04-06T14:29:00.525Z,11.95
2019-04-06T14:30:25.717Z,11.15
2019-04-06T14:31:48.532Z,12.03
2019-04-06T14:33:24.250Z,12.18
2019-04-06T14:34:39.570Z,11.25
2019-04-06T14:36:01.484Z,11.83
2019-04-06T14:37:17.501Z,10.80
2019-04-06T14:38:38.187Z,11.38
2019-04-06T14:40:16.855Z,12.33
2019-04-06T14:41:40.685Z,10.75
2019-04-06T14:43:10.391Z,12.05
2019-04-06T14:44:34.061Z,11.05
2019-04-06T14:45:45.755Z,11.28
2019-04-06T14:47:15.320Z,10.58
2019-04-06T14:48:33.876Z,10.93
2019-04-06T14:50:00.814Z,10.38
2019-04-06T14:51:12.710Z,10.68
2019-04-06T14:52:44.174Z,10.43
2019-04-06T14:53:54.538Z,10.70
2019-04-06T14:55:06.836Z,10.15
2019-04-06T14:56:23.729Z,10.95
2019-04-06T14:57:34.419Z,10.32
2019-04-06T14:59:00.913Z,11.20
2019-04-06T15:00:25.798Z,10.50
2019-04-06T15:01:56.664Z,11.88
2019-04-06T15:03:13.347Z,11.00
2019-04-06T15:04:36.009Z,11.33